Řízení letového provozu České republiky
Letiste: LKPR Aktualizace: 09.12.2016 11:33:10  UTC
 METAR LKPR 09.12. 11:30 ...
METAR LKPR 091130Z 24023KT 9999 BKN020 BKN048 07/03 Q1026 NOSIG RMK REG QNH 1023=
 TAF LKPR 09.12. 11:00 ...
TAF LKPR 091100Z 0912/1018 24016KT CAVOK      TEMPO 0912/1018 25018G28KT      TEMPO 0912/0916 9999 BKN040=